createdAt,value
2018-10-16T00:02:06.092Z,10.50
2018-10-16T00:04:34.274Z,10.33
2018-10-16T00:07:02.469Z,10.53
2018-10-16T00:09:30.648Z,10.60
2018-10-16T00:12:01.733Z,10.53
2018-10-16T00:14:30.257Z,10.40
2018-10-16T00:16:58.480Z,10.47
2018-10-16T00:19:26.686Z,12.60
2018-10-16T00:21:55.380Z,14.67
2018-10-16T00:24:23.757Z,16.30
2018-10-16T00:26:52.038Z,16.83
2018-10-16T00:29:20.829Z,15.30
2018-10-16T00:31:49.018Z,14.97
2018-10-16T00:34:17.324Z,12.67
2018-10-16T00:36:45.509Z,12.27
2018-10-16T00:39:15.975Z,12.07
2018-10-16T00:41:48.396Z,13.13
2018-10-16T00:44:16.585Z,12.67
2018-10-16T00:46:44.797Z,12.23
2018-10-16T00:49:12.968Z,12.27
2018-10-16T00:51:41.188Z,12.60
2018-10-16T00:54:09.673Z,11.93
2018-10-16T00:56:37.998Z,12.77
2018-10-16T00:59:06.917Z,12.93
2018-10-16T01:01:35.397Z,11.90
2018-10-16T01:04:04.792Z,13.67
2018-10-16T01:06:33.793Z,12.10
2018-10-16T01:09:02.016Z,11.80
2018-10-16T01:11:30.242Z,11.67
2018-10-16T01:13:58.821Z,11.20
2018-10-16T01:16:27.012Z,11.37
2018-10-16T01:18:55.192Z,12.50
2018-10-16T01:21:26.141Z,11.67
2018-10-16T01:23:54.335Z,11.30
2018-10-16T01:26:22.533Z,11.70
2018-10-16T01:28:50.728Z,11.77
2018-10-16T01:31:18.925Z,10.70
2018-10-16T01:33:47.220Z,11.40
2018-10-16T01:36:15.413Z,11.17
2018-10-16T01:38:43.601Z,11.90
2018-10-16T01:41:11.777Z,12.40
2018-10-16T01:43:40.403Z,12.03
2018-10-16T01:46:09.196Z,12.60
2018-10-16T01:48:37.877Z,12.20
2018-10-16T01:51:06.366Z,11.07
2018-10-16T01:53:34.544Z,12.90
2018-10-16T01:56:02.720Z,11.00
2018-10-16T01:58:30.901Z,11.00
2018-10-16T02:00:59.081Z,12.10
2018-10-16T02:03:27.277Z,12.10
2018-10-16T02:05:55.475Z,11.80
2018-10-16T02:08:23.664Z,11.17
2018-10-16T02:10:51.889Z,11.40
2018-10-16T02:13:20.073Z,11.53
2018-10-16T02:15:48.259Z,12.07
2018-10-16T02:18:16.448Z,11.37
2018-10-16T02:20:44.633Z,10.43
2018-10-16T02:23:12.861Z,10.57
2018-10-16T02:25:41.049Z,11.43
2018-10-16T02:28:09.265Z,10.57
2018-10-16T02:30:37.510Z,11.07
2018-10-16T02:33:05.893Z,11.03
2018-10-16T02:35:34.078Z,10.87
2018-10-16T02:38:02.286Z,11.27
2018-10-16T02:40:30.494Z,10.70
2018-10-16T02:42:58.671Z,10.00
2018-10-16T02:45:26.877Z,10.17
2018-10-16T02:47:55.062Z,10.37
2018-10-16T02:50:23.252Z,11.73
2018-10-16T02:52:51.447Z,11.73
2018-10-16T02:55:19.654Z,11.00
2018-10-16T02:57:47.857Z,10.60
2018-10-16T03:00:16.088Z,11.33
2018-10-16T03:02:44.300Z,9.93
2018-10-16T03:05:12.568Z,10.50
2018-10-16T03:07:41.533Z,11.00
2018-10-16T03:10:09.724Z,10.03
2018-10-16T03:12:37.912Z,11.50
2018-10-16T03:15:08.909Z,10.77
2018-10-16T03:17:37.301Z,10.87
2018-10-16T03:20:05.595Z,10.80
2018-10-16T03:22:33.785Z,10.50
2018-10-16T03:25:01.969Z,11.30
2018-10-16T03:27:30.145Z,11.23
2018-10-16T03:29:58.335Z,10.97
2018-10-16T03:32:26.535Z,10.97
2018-10-16T03:34:54.704Z,10.00
2018-10-16T03:37:22.936Z,11.10
2018-10-16T03:39:51.142Z,11.87
2018-10-16T03:42:19.320Z,12.23
2018-10-16T03:44:47.492Z,11.53
2018-10-16T03:47:15.672Z,11.53
2018-10-16T03:49:43.848Z,10.87
2018-10-16T03:52:12.033Z,11.17
2018-10-16T03:54:40.237Z,14.20
2018-10-16T03:57:08.477Z,17.40
2018-10-16T03:59:36.634Z,16.90
2018-10-16T04:02:04.958Z,19.27
2018-10-16T04:04:33.285Z,13.73
2018-10-16T04:07:01.498Z,11.70
2018-10-16T04:09:29.695Z,11.00
2018-10-16T04:11:57.893Z,12.80
2018-10-16T04:14:26.089Z,11.07
2018-10-16T04:16:54.333Z,11.70
2018-10-16T04:19:22.549Z,11.30
2018-10-16T04:21:50.757Z,10.83
2018-10-16T04:24:18.960Z,11.10
2018-10-16T04:26:47.190Z,11.23
2018-10-16T04:30:39.863Z,12.83
2018-10-16T04:33:08.072Z,11.50
2018-10-16T04:35:36.277Z,11.50
2018-10-16T04:38:04.585Z,11.40
2018-10-16T04:40:32.795Z,12.00
2018-10-16T04:43:01.625Z,11.63
2018-10-16T04:45:29.865Z,11.57
2018-10-16T04:47:59.122Z,11.80
2018-10-16T04:50:27.329Z,11.10
2018-10-16T04:52:55.539Z,10.97
2018-10-16T04:55:23.762Z,10.70
2018-10-16T04:57:51.978Z,11.63
2018-10-16T05:00:20.190Z,11.63
2018-10-16T05:02:48.380Z,10.80
2018-10-16T05:05:20.247Z,10.20
2018-10-16T05:07:48.956Z,10.17
2018-10-16T05:10:17.176Z,11.40
2018-10-16T05:12:45.391Z,11.03
2018-10-16T05:15:23.822Z,10.50
2018-10-16T05:17:52.076Z,11.50
2018-10-16T05:20:20.295Z,10.33
2018-10-16T05:22:48.666Z,10.83
2018-10-16T05:25:17.178Z,10.73
2018-10-16T05:27:45.393Z,10.90
2018-10-16T05:30:13.595Z,11.50
2018-10-16T05:32:41.837Z,10.07
2018-10-16T05:35:10.238Z,10.73
2018-10-16T05:37:39.237Z,10.87
2018-10-16T05:40:07.915Z,11.47
2018-10-16T05:42:36.496Z,11.43
2018-10-16T05:45:05.165Z,11.27
2018-10-16T05:47:33.373Z,11.50
2018-10-16T05:50:01.563Z,10.60
2018-10-16T05:52:29.864Z,11.20
2018-10-16T05:54:58.114Z,11.33
2018-10-16T05:57:26.328Z,10.90
2018-10-16T06:00:01.651Z,10.03
2018-10-16T06:02:29.887Z,11.03
2018-10-16T06:04:58.102Z,10.10
2018-10-16T06:07:26.330Z,11.07
2018-10-16T06:09:54.522Z,10.73
2018-10-16T06:12:22.810Z,10.57
2018-10-16T06:14:50.954Z,11.10
2018-10-16T06:17:19.137Z,12.77
2018-10-16T06:19:47.366Z,10.93
2018-10-16T06:22:15.558Z,11.27
2018-10-16T06:24:43.759Z,10.83
2018-10-16T06:27:11.949Z,11.67
2018-10-16T06:29:40.131Z,11.33
2018-10-16T06:32:08.321Z,10.93
2018-10-16T06:34:36.509Z,11.97
2018-10-16T06:37:05.021Z,11.07
2018-10-16T06:39:33.217Z,10.55
2018-10-16T06:42:01.401Z,10.03
2018-10-16T06:44:29.580Z,10.80
2018-10-16T06:46:57.943Z,10.13
2018-10-16T06:49:26.120Z,10.60
2018-10-16T06:51:54.296Z,10.17
2018-10-16T06:54:22.492Z,10.47
2018-10-16T06:56:50.672Z,10.23
2018-10-16T06:59:18.853Z,10.77
2018-10-16T07:01:47.043Z,10.53
2018-10-16T07:04:15.241Z,11.17
2018-10-16T07:06:43.473Z,11.50
2018-10-16T07:09:11.652Z,11.00
2018-10-16T07:53:02.645Z,11.00
2018-10-16T07:55:30.852Z,11.20
2018-10-16T07:57:59.036Z,10.17
2018-10-16T08:00:27.197Z,11.70
2018-10-16T08:02:55.412Z,10.50
2018-10-16T08:05:23.589Z,11.20
2018-10-16T08:07:52.494Z,11.80
2018-10-16T08:10:20.655Z,11.33
2018-10-16T08:12:48.890Z,10.17
2018-10-16T08:15:17.060Z,10.80
2018-10-16T08:17:45.221Z,10.43
2018-10-16T08:20:13.424Z,11.47
2018-10-16T08:22:41.576Z,11.17
2018-10-16T08:25:09.840Z,11.13
2018-10-16T08:27:38.076Z,12.13
2018-10-16T08:30:07.619Z,11.80
2018-10-16T08:32:35.789Z,10.57
2018-10-16T08:35:03.981Z,13.47
2018-10-16T08:39:45.439Z,14.67
2018-10-16T08:43:28.101Z,12.43
2018-10-16T09:32:40.205Z,9.03
2018-10-16T09:35:10.016Z,8.80
2018-10-16T09:37:38.469Z,9.20
2018-10-16T09:40:07.897Z,8.73
2018-10-16T09:42:36.073Z,9.97
2018-10-16T09:45:04.332Z,8.93
2018-10-16T09:47:32.473Z,9.57
2018-10-16T09:50:00.618Z,9.43
2018-10-16T09:52:28.871Z,10.00
2018-10-16T09:54:57.027Z,10.90
2018-10-16T09:57:25.169Z,10.00
2018-10-16T09:59:53.312Z,9.80
2018-10-16T10:02:21.443Z,10.13
2018-10-16T10:04:49.597Z,9.90
2018-10-16T10:07:17.736Z,9.10
2018-10-16T10:09:45.878Z,9.13
2018-10-16T10:12:14.169Z,8.37
2018-10-16T10:14:42.312Z,8.33
2018-10-16T10:17:10.460Z,7.80
2018-10-16T10:19:38.601Z,8.17
2018-10-16T10:22:06.765Z,8.83
2018-10-16T10:24:34.915Z,8.17
2018-10-16T10:27:03.053Z,8.27
2018-10-16T10:29:31.263Z,7.70
2018-10-16T10:31:59.348Z,8.40
2018-10-16T10:34:27.500Z,8.03
2018-10-16T10:36:55.646Z,7.70
2018-10-16T10:39:23.789Z,7.90
2018-10-16T10:41:51.994Z,8.27
2018-10-16T10:44:20.132Z,8.50
2018-10-16T10:46:48.264Z,7.47
2018-10-16T10:49:16.420Z,8.13
2018-10-16T10:51:44.672Z,8.83
2018-10-16T10:54:12.812Z,7.30
2018-10-16T10:56:41.025Z,7.17
2018-10-16T10:59:09.088Z,7.73
2018-10-16T11:01:37.224Z,7.77
2018-10-16T11:04:05.799Z,8.17
2018-10-16T11:06:33.939Z,8.57
2018-10-16T11:09:02.140Z,7.40
2018-10-16T11:11:30.252Z,8.03
2018-10-16T11:13:58.385Z,7.50
2018-10-16T11:16:26.532Z,8.20
2018-10-16T11:18:54.673Z,7.73
2018-10-16T11:21:22.826Z,7.90
2018-10-16T11:23:50.965Z,7.17
2018-10-16T11:26:19.113Z,8.63
2018-10-16T11:28:47.258Z,9.50
2018-10-16T11:31:15.392Z,8.10
2018-10-16T11:33:43.532Z,9.13
2018-10-16T11:36:11.700Z,7.73
2018-10-16T11:38:39.968Z,7.23
2018-10-16T11:41:08.127Z,7.30
2018-10-16T11:43:36.264Z,7.07
2018-10-16T11:46:04.880Z,7.40
2018-10-16T11:48:33.013Z,6.73
2018-10-16T11:51:01.160Z,7.83
2018-10-16T11:53:29.317Z,6.80
2018-10-16T11:55:57.503Z,7.40
2018-10-16T11:58:25.605Z,6.77
2018-10-16T12:00:53.748Z,7.53
2018-10-16T12:03:21.885Z,6.63
2018-10-16T12:05:50.039Z,6.57
2018-10-16T12:08:18.186Z,6.70
2018-10-16T12:10:46.417Z,7.27
2018-10-16T12:13:14.573Z,7.00
2018-10-16T12:15:42.605Z,6.60
2018-10-16T12:18:19.371Z,6.37
2018-10-16T12:20:52.385Z,6.53
2018-10-16T12:23:20.513Z,6.83
2018-10-16T12:25:48.669Z,7.40
2018-10-16T12:28:17.530Z,6.93
2018-10-16T12:30:45.673Z,6.63
2018-10-16T12:33:13.878Z,6.50
2018-10-16T12:35:42.073Z,6.73
2018-10-16T12:38:10.213Z,6.30
2018-10-16T12:40:38.354Z,6.77
2018-10-16T12:43:06.548Z,6.20
2018-10-16T12:45:34.728Z,6.57
2018-10-16T12:48:02.904Z,6.20
2018-10-16T12:50:31.596Z,6.20
2018-10-16T12:52:59.753Z,6.57
2018-10-16T12:55:27.877Z,5.90
2018-10-16T12:57:56.062Z,6.07
2018-10-16T13:00:24.201Z,6.30
2018-10-16T13:02:52.371Z,6.03
2018-10-16T13:05:20.571Z,6.20
2018-10-16T13:07:48.705Z,6.00
2018-10-16T13:10:18.020Z,6.23
2018-10-16T13:12:46.593Z,6.33
2018-10-16T13:15:15.591Z,6.33
2018-10-16T13:17:43.732Z,6.87
2018-10-16T13:20:13.266Z,6.20
2018-10-16T13:22:42.057Z,9.37
2018-10-16T13:25:11.877Z,6.60
2018-10-16T13:27:40.018Z,10.47
2018-10-16T13:30:10.273Z,6.63
2018-10-16T13:32:38.404Z,6.60
2018-10-16T13:35:08.807Z,5.83
2018-10-16T13:37:36.909Z,5.83
2018-10-16T13:40:06.072Z,6.13
2018-10-16T13:42:34.181Z,6.97
2018-10-16T13:45:02.497Z,5.63
2018-10-16T13:47:30.629Z,6.30
2018-10-16T13:49:58.823Z,6.37
2018-10-16T13:52:26.945Z,5.77
2018-10-16T13:54:55.197Z,5.90
2018-10-16T13:57:23.333Z,6.10
2018-10-16T13:59:51.649Z,5.87
2018-10-16T14:02:19.804Z,5.77
2018-10-16T14:04:48.002Z,6.27
2018-10-16T14:07:16.110Z,6.17
2018-10-16T14:09:44.860Z,6.43
2018-10-16T14:12:12.993Z,6.50
2018-10-16T14:14:41.142Z,6.13
2018-10-16T14:17:09.680Z,5.87
2018-10-16T14:19:38.280Z,6.77
2018-10-16T14:22:09.153Z,5.87
2018-10-16T14:24:37.204Z,6.10
2018-10-16T14:27:05.479Z,6.30
2018-10-16T14:29:33.619Z,6.03
2018-10-16T14:32:01.791Z,6.47
2018-10-16T14:34:30.003Z,6.40
2018-10-16T14:36:58.028Z,6.23
2018-10-16T14:39:26.181Z,6.60
2018-10-16T14:41:54.324Z,6.10
2018-10-16T14:44:22.468Z,6.10
2018-10-16T14:46:50.621Z,5.37
2018-10-16T14:49:18.775Z,6.20
2018-10-16T14:51:46.907Z,5.73
2018-10-16T14:54:15.068Z,6.13
2018-10-16T14:56:43.204Z,6.17
2018-10-16T14:59:11.365Z,6.43
2018-10-16T15:01:39.557Z,6.70
2018-10-16T15:04:07.722Z,6.17
2018-10-16T15:06:35.885Z,5.37
2018-10-16T15:09:05.937Z,5.40
2018-10-16T15:11:34.085Z,7.10
2018-10-16T15:14:02.280Z,5.90
2018-10-16T15:16:30.426Z,5.93
2018-10-16T15:18:58.601Z,6.00
2018-10-16T15:21:26.744Z,6.40
2018-10-16T15:23:54.890Z,6.97
2018-10-16T15:26:23.024Z,8.10
2018-10-16T15:28:51.171Z,7.07
2018-10-16T15:31:19.304Z,5.93
2018-10-16T15:33:47.449Z,7.00
2018-10-16T15:36:15.672Z,6.40
2018-10-16T15:38:43.776Z,6.30
2018-10-16T15:41:11.959Z,6.33
2018-10-16T15:43:40.072Z,5.60
2018-10-16T15:46:08.263Z,6.10
2018-10-16T15:48:36.357Z,7.00
2018-10-16T15:51:04.748Z,6.23
2018-10-16T15:53:32.904Z,6.77
2018-10-16T15:56:01.174Z,6.30
2018-10-16T15:58:29.257Z,6.90
2018-10-16T16:00:57.396Z,6.57
2018-10-16T16:03:25.532Z,6.03
2018-10-16T16:05:53.722Z,7.60
2018-10-16T16:08:21.837Z,11.27
2018-10-16T16:10:49.973Z,8.00
2018-10-16T16:13:18.121Z,9.13
2018-10-16T16:15:46.260Z,8.80
2018-10-16T16:18:14.462Z,9.10
2018-10-16T16:20:42.560Z,7.77
2018-10-16T16:23:10.725Z,9.77
2018-10-16T16:25:38.877Z,10.97
2018-10-16T16:28:07.051Z,13.20
2018-10-16T16:30:35.172Z,10.50
2018-10-16T16:33:03.321Z,9.27
2018-10-16T16:35:31.501Z,9.27
2018-10-16T16:37:59.702Z,8.50
2018-10-16T16:40:27.825Z,10.23
2018-10-16T16:42:55.977Z,10.17
2018-10-16T16:45:24.132Z,9.73
2018-10-16T16:47:52.289Z,8.63
2018-10-16T16:50:20.465Z,8.70
2018-10-16T16:52:48.621Z,8.57
2018-10-16T16:55:16.773Z,10.87
2018-10-16T16:57:44.952Z,12.60
2018-10-16T17:00:14.249Z,13.00
2018-10-16T17:02:43.766Z,11.67
2018-10-16T17:05:12.440Z,16.23
2018-10-16T17:07:41.032Z,25.53
2018-10-16T17:10:09.455Z,18.77
2018-10-16T17:12:38.097Z,14.30
2018-10-16T17:15:08.060Z,13.60
2018-10-16T17:17:36.356Z,11.33
2018-10-16T17:20:05.185Z,9.73
2018-10-16T17:22:33.283Z,9.87
2018-10-16T17:25:01.529Z,8.50
2018-10-16T17:27:29.753Z,9.20
2018-10-16T17:29:57.909Z,9.90
2018-10-16T17:32:26.052Z,11.97
2018-10-16T17:34:54.205Z,14.23
2018-10-16T17:37:22.361Z,11.37
2018-10-16T17:39:50.502Z,13.37
2018-10-16T17:42:18.694Z,13.03
2018-10-16T17:44:46.875Z,28.53
2018-10-16T17:47:15.017Z,28.33
2018-10-16T17:49:43.157Z,38.10
2018-10-16T17:52:11.671Z,31.43
2018-10-16T17:54:39.928Z,32.80
2018-10-16T17:57:08.502Z,20.90
2018-10-16T17:59:36.633Z,19.80
2018-10-16T18:02:04.817Z,17.33
2018-10-16T18:04:33.795Z,23.50
2018-10-16T18:07:01.948Z,21.73
2018-10-16T18:09:30.140Z,24.93
2018-10-16T18:11:58.370Z,17.10
2018-10-16T18:14:26.644Z,15.10
2018-10-16T18:16:54.870Z,21.67
2018-10-16T18:19:23.390Z,12.07
2018-10-16T18:21:51.559Z,18.87
2018-10-16T18:24:19.742Z,16.40
2018-10-16T18:26:47.894Z,14.93
2018-10-16T18:29:16.029Z,21.63
2018-10-16T18:31:44.179Z,19.57
2018-10-16T18:34:12.320Z,18.13
2018-10-16T18:36:40.477Z,15.20
2018-10-16T18:39:08.994Z,26.27
2018-10-16T18:41:37.413Z,19.50
2018-10-16T18:44:05.800Z,24.63
2018-10-16T18:46:33.944Z,19.03
2018-10-16T18:49:02.112Z,18.23
2018-10-16T18:51:30.272Z,21.43
2018-10-16T18:53:58.425Z,14.40
2018-10-16T18:56:26.585Z,26.10
2018-10-16T18:58:54.737Z,17.97
2018-10-16T19:01:22.889Z,14.67
2018-10-16T19:03:51.040Z,13.43
2018-10-16T19:06:19.172Z,16.63
2018-10-16T19:08:47.348Z,13.73
2018-10-16T19:11:15.500Z,15.17
2018-10-16T19:13:43.702Z,23.23
2018-10-16T19:16:11.871Z,14.80
2018-10-16T19:18:40.015Z,14.37
2018-10-16T19:21:08.385Z,12.77
2018-10-16T19:23:36.468Z,16.43
2018-10-16T19:26:04.936Z,12.93
2018-10-16T19:28:33.101Z,13.87
2018-10-16T19:31:01.248Z,14.70
2018-10-16T19:33:30.113Z,13.80
2018-10-16T19:35:58.248Z,12.80
2018-10-16T19:38:26.413Z,14.47
2018-10-16T19:40:54.553Z,14.20
2018-10-16T19:43:22.712Z,13.33
2018-10-16T19:45:50.901Z,12.63
2018-10-16T19:48:19.040Z,13.30
2018-10-16T19:50:47.205Z,13.00
2018-10-16T19:53:15.355Z,12.60
2018-10-16T19:55:43.505Z,13.43
2018-10-16T19:58:11.656Z,13.20
2018-10-16T20:09:20.750Z,13.37
2018-10-16T20:11:48.910Z,14.80
2018-10-16T20:14:17.213Z,13.43
2018-10-16T20:16:45.252Z,12.23
2018-10-16T20:19:13.424Z,12.47
2018-10-16T20:21:41.582Z,11.47
2018-10-16T20:24:09.753Z,12.10
2018-10-16T20:26:37.894Z,11.70
2018-10-16T20:29:06.033Z,12.33
2018-10-16T20:31:34.204Z,11.80
2018-10-16T20:34:02.340Z,13.50
2018-10-16T20:36:30.578Z,11.73
2018-10-16T20:38:58.686Z,12.23
2018-10-16T20:41:26.845Z,11.90
2018-10-16T20:43:54.985Z,12.40
2018-10-16T20:46:23.128Z,12.03
2018-10-16T20:48:51.363Z,13.10
2018-10-16T20:51:19.516Z,13.87
2018-10-16T20:53:47.663Z,12.17
2018-10-16T20:56:15.824Z,12.50
2018-10-16T20:58:44.061Z,11.97
2018-10-16T21:01:13.575Z,13.03
2018-10-16T21:03:41.685Z,12.33
2018-10-16T21:06:10.064Z,14.83
2018-10-16T21:08:39.624Z,12.97
2018-10-16T21:11:07.786Z,14.17
2018-10-16T21:13:36.047Z,15.07
2018-10-16T21:16:04.193Z,14.50
2018-10-16T21:18:32.347Z,13.63
2018-10-16T21:21:00.698Z,15.67
2018-10-16T21:23:28.850Z,16.60
2018-10-16T21:25:58.880Z,13.43
2018-10-16T21:28:27.352Z,15.23
2018-10-16T21:30:55.522Z,26.20
2018-10-16T21:33:23.649Z,21.30
2018-10-16T21:35:51.799Z,20.47
2018-10-16T21:38:19.946Z,20.57
2018-10-16T21:40:48.095Z,19.13
2018-10-16T21:43:16.301Z,20.20
2018-10-16T21:45:44.773Z,18.27
2018-10-16T21:48:13.052Z,21.37
2018-10-16T21:50:41.192Z,20.93
2018-10-16T21:53:09.447Z,17.63
2018-10-16T21:55:37.676Z,15.47
2018-10-16T21:58:06.056Z,15.17
2018-10-16T22:00:40.052Z,14.80
2018-10-16T22:03:08.232Z,14.93
2018-10-16T22:05:36.352Z,14.77
2018-10-16T22:08:04.561Z,15.10
